sensor_id;sensor_type;location;lat;lon;timestamp;temperature;humidity
31975;DHT22;18500;43.618;1.474;2023-02-26T08:14:14;5.50;1.00
31975;DHT22;18500;43.618;1.474;2023-02-26T08:16:40;5.60;1.00
31975;DHT22;18500;43.618;1.474;2023-02-26T08:19:05;5.50;1.00
31975;DHT22;18500;43.618;1.474;2023-02-26T08:21:31;5.70;1.00
31975;DHT22;18500;43.618;1.474;2023-02-26T08:23:57;5.90;1.00
31975;DHT22;18500;43.618;1.474;2023-02-26T08:26:22;6.00;1.00
31975;DHT22;18500;43.618;1.474;2023-02-26T08:28:49;6.10;1.00
31975;DHT22;18500;43.618;1.474;2023-02-26T08:31:15;6.10;1.00
31975;DHT22;18500;43.618;1.474;2023-02-26T08:33:41;5.80;1.00
31975;DHT22;18500;43.618;1.474;2023-02-26T08:36:07;5.70;1.00
31975;DHT22;18500;43.618;1.474;2023-02-26T08:38:33;5.80;1.00
31975;DHT22;18500;43.618;1.474;2023-02-26T08:40:58;5.60;1.00
31975;DHT22;18500;43.618;1.474;2023-02-26T08:43:25;5.60;1.00
31975;DHT22;18500;43.618;1.474;2023-02-26T08:45:55;5.60;1.00
31975;DHT22;18500;43.618;1.474;2023-02-26T08:48:22;5.60;1.00
31975;DHT22;18500;43.618;1.474;2023-02-26T08:50:47;5.60;1.00
31975;DHT22;18500;43.618;1.474;2023-02-26T08:53:13;5.50;1.00
31975;DHT22;18500;43.618;1.474;2023-02-26T08:55:39;5.50;1.00
31975;DHT22;18500;43.618;1.474;2023-02-26T08:58:05;5.60;1.00
31975;DHT22;18500;43.618;1.474;2023-02-26T09:00:32;5.20;1.00
31975;DHT22;18500;43.618;1.474;2023-02-26T09:02:58;5.30;1.00
31975;DHT22;18500;43.618;1.474;2023-02-26T09:05:24;5.40;1.00
31975;DHT22;18500;43.618;1.474;2023-02-26T09:07:50;5.60;1.00
31975;DHT22;18500;43.618;1.474;2023-02-26T09:10:16;5.60;1.00
31975;DHT22;18500;43.618;1.474;2023-02-26T09:12:42;5.60;1.00
31975;DHT22;18500;43.618;1.474;2023-02-26T09:15:09;5.50;1.00
31975;DHT22;18500;43.618;1.474;2023-02-26T09:17:35;5.50;1.00
31975;DHT22;18500;43.618;1.474;2023-02-26T09:20:01;5.40;1.00
31975;DHT22;18500;43.618;1.474;2023-02-26T09:22:28;5.30;1.00
31975;DHT22;18500;43.618;1.474;2023-02-26T09:24:53;5.10;1.00
31975;DHT22;18500;43.618;1.474;2023-02-26T09:27:19;5.20;1.00
31975;DHT22;18500;43.618;1.474;2023-02-26T09:29:45;5.30;1.00
31975;DHT22;18500;43.618;1.474;2023-02-26T09:32:10;5.60;1.00
31975;DHT22;18500;43.618;1.474;2023-02-26T09:34:37;5.70;1.00
31975;DHT22;18500;43.618;1.474;2023-02-26T09:37:07;5.90;1.00
31975;DHT22;18500;43.618;1.474;2023-02-26T09:39:34;5.90;1.00
31975;DHT22;18500;43.618;1.474;2023-02-26T09:42:29;6.00;1.00
31975;DHT22;18500;43.618;1.474;2023-02-26T09:44:52;6.00;1.00
31975;DHT22;18500;43.618;1.474;2023-02-26T09:47:34;6.00;1.00
31975;DHT22;18500;43.618;1.474;2023-02-26T09:50:23;5.80;1.00
31975;DHT22;18500;43.618;1.474;2023-02-26T09:58:03;6.20;1.00
31975;DHT22;18500;43.618;1.474;2023-02-26T10:14:41;6.30;1.00
31975;DHT22;18500;43.618;1.474;2023-02-26T10:19:59;6.20;1.00
31975;DHT22;18500;43.618;1.474;2023-02-26T10:25:15;6.40;1.00
31975;DHT22;18500;43.618;1.474;2023-02-26T10:30:45;6.20;1.00
31975;DHT22;18500;43.618;1.474;2023-02-26T10:38:36;6.40;1.00
31975;DHT22;18500;43.618;1.474;2023-02-26T10:41:11;6.30;1.00
31975;DHT22;18500;43.618;1.474;2023-02-26T10:43:45;6.30;1.00
31975;DHT22;18500;43.618;1.474;2023-02-26T10:46:22;6.40;1.00
31975;DHT22;18500;43.618;1.474;2023-02-26T10:52:23;6.90;1.00
31975;DHT22;18500;43.618;1.474;2023-02-26T10:57:29;6.40;1.00
31975;DHT22;18500;43.618;1.474;2023-02-26T10:59:58;6.80;1.00
31975;DHT22;18500;43.618;1.474;2023-02-26T11:02:38;7.00;1.00
31975;DHT22;18500;43.618;1.474;2023-02-26T11:05:09;7.10;1.00
31975;DHT22;18500;43.618;1.474;2023-02-26T11:07:38;7.20;1.00
31975;DHT22;18500;43.618;1.474;2023-02-26T11:10:13;7.10;1.00
31975;DHT22;18500;43.618;1.474;2023-02-26T11:12:39;7.20;1.00
31975;DHT22;18500;43.618;1.474;2023-02-26T11:15:05;7.30;1.00
31975;DHT22;18500;43.618;1.474;2023-02-26T11:17:36;7.50;1.00
31975;DHT22;18500;43.618;1.474;2023-02-26T11:20:11;7.30;1.00
31975;DHT22;18500;43.618;1.474;2023-02-26T11:22:45;7.20;1.00
31975;DHT22;18500;43.618;1.474;2023-02-26T11:25:22;7.50;1.00
31975;DHT22;18500;43.618;1.474;2023-02-26T11:27:54;7.70;1.00
31975;DHT22;18500;43.618;1.474;2023-02-26T11:30:25;7.00;1.00
31975;DHT22;18500;43.618;1.474;2023-02-26T11:32:53;7.20;1.00
31975;DHT22;18500;43.618;1.474;2023-02-26T11:35:23;8.00;1.00
31975;DHT22;18500;43.618;1.474;2023-02-26T11:37:59;7.80;1.00
31975;DHT22;18500;43.618;1.474;2023-02-26T11:40:47;8.10;1.00
31975;DHT22;18500;43.618;1.474;2023-02-26T11:43:19;8.10;1.00
31975;DHT22;18500;43.618;1.474;2023-02-26T11:45:51;8.00;1.00
31975;DHT22;18500;43.618;1.474;2023-02-26T11:48:26;8.30;1.00
31975;DHT22;18500;43.618;1.474;2023-02-26T11:50:56;8.80;1.00
31975;DHT22;18500;43.618;1.474;2023-02-26T11:53:43;7.70;1.00
31975;DHT22;18500;43.618;1.474;2023-02-26T11:56:14;7.70;1.00
31975;DHT22;18500;43.618;1.474;2023-02-26T11:58:45;7.50;1.00
31975;DHT22;18500;43.618;1.474;2023-02-26T12:01:12;7.40;1.00
31975;DHT22;18500;43.618;1.474;2023-02-26T12:03:42;7.50;1.00
31975;DHT22;18500;43.618;1.474;2023-02-26T12:06:19;7.60;1.00
31975;DHT22;18500;43.618;1.474;2023-02-26T12:08:45;7.40;1.00
31975;DHT22;18500;43.618;1.474;2023-02-26T12:14:02;7.70;1.00
31975;DHT22;18500;43.618;1.474;2023-02-26T12:19:37;8.50;1.00
31975;DHT22;18500;43.618;1.474;2023-02-26T12:24:58;7.90;1.00
31975;DHT22;18500;43.618;1.474;2023-02-26T12:35:38;8.90;1.00
31975;DHT22;18500;43.618;1.474;2023-02-26T12:38:18;8.60;1.00
31975;DHT22;18500;43.618;1.474;2023-02-26T12:41:00;8.80;1.00
31975;DHT22;18500;43.618;1.474;2023-02-26T13:00:18;9.30;1.00
31975;DHT22;18500;43.618;1.474;2023-02-26T13:08:31;12.50;1.00
31975;DHT22;18500;43.618;1.474;2023-02-26T13:14:20;9.60;1.00
31975;DHT22;18500;43.618;1.474;2023-02-26T13:17:01;10.20;1.00
31975;DHT22;18500;43.618;1.474;2023-02-26T13:19:43;13.70;1.00
31975;DHT22;18500;43.618;1.474;2023-02-26T13:22:49;16.20;1.00
31975;DHT22;18500;43.618;1.474;2023-02-26T13:27:58;11.70;1.00
31975;DHT22;18500;43.618;1.474;2023-02-26T13:30:39;10.10;1.00
31975;DHT22;18500;43.618;1.474;2023-02-26T13:33:16;9.30;1.00
31975;DHT22;18500;43.618;1.474;2023-02-26T13:35:43;9.70;1.00
31975;DHT22;18500;43.618;1.474;2023-02-26T13:49:07;9.80;1.00
31975;DHT22;18500;43.618;1.474;2023-02-26T13:51:36;9.50;1.00
31975;DHT22;18500;43.618;1.474;2023-02-26T13:56:48;9.70;1.00
31975;DHT22;18500;43.618;1.474;2023-02-26T13:59:37;9.70;1.00
31975;DHT22;18500;43.618;1.474;2023-02-26T14:04:59;10.40;1.00
31975;DHT22;18500;43.618;1.474;2023-02-26T14:07:47;10.30;1.00
31975;DHT22;18500;43.618;1.474;2023-02-26T14:10:26;10.00;1.00
31975;DHT22;18500;43.618;1.474;2023-02-26T14:15:42;9.90;1.00
31975;DHT22;18500;43.618;1.474;2023-02-26T14:20:51;9.70;1.00
31975;DHT22;18500;43.618;1.474;2023-02-26T14:23:34;9.70;1.00
31975;DHT22;18500;43.618;1.474;2023-02-26T14:26:05;9.70;1.00
31975;DHT22;18500;43.618;1.474;2023-02-26T14:34:53;9.70;1.00
31975;DHT22;18500;43.618;1.474;2023-02-26T14:37:23;9.90;1.00
31975;DHT22;18500;43.618;1.474;2023-02-26T14:40:04;10.00;1.00
31975;DHT22;18500;43.618;1.474;2023-02-26T14:47:51;9.80;1.00
31975;DHT22;18500;43.618;1.474;2023-02-26T14:50:19;9.20;1.00
31975;DHT22;18500;43.618;1.474;2023-02-26T15:13:03;9.30;1.00
31975;DHT22;18500;43.618;1.474;2023-02-26T15:15:46;9.40;1.00
31975;DHT22;18500;43.618;1.474;2023-02-26T15:24:09;9.20;1.00
31975;DHT22;18500;43.618;1.474;2023-02-26T15:26:41;9.30;1.00
31975;DHT22;18500;43.618;1.474;2023-02-26T15:29:10;9.20;1.00
31975;DHT22;18500;43.618;1.474;2023-02-26T15:31:43;9.40;1.00
31975;DHT22;18500;43.618;1.474;2023-02-26T15:34:14;9.10;1.00
31975;DHT22;18500;43.618;1.474;2023-02-26T15:36:48;9.60;1.00
31975;DHT22;18500;43.618;1.474;2023-02-26T15:39:18;9.40;1.00
31975;DHT22;18500;43.618;1.474;2023-02-26T15:41:47;9.50;1.00
31975;DHT22;18500;43.618;1.474;2023-02-26T15:44:18;9.20;1.00
31975;DHT22;18500;43.618;1.474;2023-02-26T15:46:47;8.80;1.00
31975;DHT22;18500;43.618;1.474;2023-02-26T15:49:39;8.80;1.00
31975;DHT22;18500;43.618;1.474;2023-02-26T15:52:04;8.70;1.00
31975;DHT22;18500;43.618;1.474;2023-02-26T15:54:53;8.30;1.00
31975;DHT22;18500;43.618;1.474;2023-02-26T15:57:21;8.20;1.00
31975;DHT22;18500;43.618;1.474;2023-02-26T15:59:51;8.00;1.00
31975;DHT22;18500;43.618;1.474;2023-02-26T16:02:26;8.40;1.00
31975;DHT22;18500;43.618;1.474;2023-02-26T16:04:52;9.80;1.00
31975;DHT22;18500;43.618;1.474;2023-02-26T16:07:18;11.00;1.00
31975;DHT22;18500;43.618;1.474;2023-02-26T16:09:46;9.50;1.00
31975;DHT22;18500;43.618;1.474;2023-02-26T16:12:33;8.60;1.00
31975;DHT22;18500;43.618;1.474;2023-02-26T16:15:03;8.60;1.00
31975;DHT22;18500;43.618;1.474;2023-02-26T16:17:33;8.80;1.00
31975;DHT22;18500;43.618;1.474;2023-02-26T16:20:04;8.60;1.00
31975;DHT22;18500;43.618;1.474;2023-02-26T16:22:34;8.50;1.00
31975;DHT22;18500;43.618;1.474;2023-02-26T16:25:16;8.00;1.00
31975;DHT22;18500;43.618;1.474;2023-02-26T16:27:43;7.80;1.00
31975;DHT22;18500;43.618;1.474;2023-02-26T16:30:18;7.70;1.00
31975;DHT22;18500;43.618;1.474;2023-02-26T16:32:50;7.60;1.00
31975;DHT22;18500;43.618;1.474;2023-02-26T16:35:20;7.60;1.00
31975;DHT22;18500;43.618;1.474;2023-02-26T16:37:50;7.40;1.00
31975;DHT22;18500;43.618;1.474;2023-02-26T16:47:59;7.50;1.00
31975;DHT22;18500;43.618;1.474;2023-02-26T16:50:27;7.40;1.00
31975;DHT22;18500;43.618;1.474;2023-02-26T16:53:16;7.50;1.00
31975;DHT22;18500;43.618;1.474;2023-02-26T16:55:49;7.20;1.00
31975;DHT22;18500;43.618;1.474;2023-02-26T16:58:16;7.10;1.00
31975;DHT22;18500;43.618;1.474;2023-02-26T17:00:48;7.10;1.00
31975;DHT22;18500;43.618;1.474;2023-02-26T17:03:18;7.00;1.00
31975;DHT22;18500;43.618;1.474;2023-02-26T17:06:01;7.10;1.00
31975;DHT22;18500;43.618;1.474;2023-02-26T17:08:52;7.00;1.00
31975;DHT22;18500;43.618;1.474;2023-02-26T17:11:44;6.80;1.00
31975;DHT22;18500;43.618;1.474;2023-02-26T17:14:20;6.70;1.00
31975;DHT22;18500;43.618;1.474;2023-02-26T17:16:48;6.60;1.00
31975;DHT22;18500;43.618;1.474;2023-02-26T17:19:14;6.60;1.00
31975;DHT22;18500;43.618;1.474;2023-02-26T17:21:58;6.60;1.00
31975;DHT22;18500;43.618;1.474;2023-02-26T17:24:45;6.50;1.00
31975;DHT22;18500;43.618;1.474;2023-02-26T17:27:41;6.40;1.00
31975;DHT22;18500;43.618;1.474;2023-02-26T17:30:07;6.40;1.00
31975;DHT22;18500;43.618;1.474;2023-02-26T17:32:34;6.30;1.00
31975;DHT22;18500;43.618;1.474;2023-02-26T17:35:01;6.30;1.00
31975;DHT22;18500;43.618;1.474;2023-02-26T17:37:31;6.20;1.00
31975;DHT22;18500;43.618;1.474;2023-02-26T17:40:01;6.20;1.00
31975;DHT22;18500;43.618;1.474;2023-02-26T17:42:26;6.10;1.00
31975;DHT22;18500;43.618;1.474;2023-02-26T17:44:52;6.00;1.00
31975;DHT22;18500;43.618;1.474;2023-02-26T17:47:22;5.90;1.00
31975;DHT22;18500;43.618;1.474;2023-02-26T17:49:49;5.90;1.00
31975;DHT22;18500;43.618;1.474;2023-02-26T17:52:14;5.80;1.00
31975;DHT22;18500;43.618;1.474;2023-02-26T17:54:41;5.80;1.00
31975;DHT22;18500;43.618;1.474;2023-02-26T17:57:10;5.70;1.00
31975;DHT22;18500;43.618;1.474;2023-02-26T17:59:38;5.60;1.00
31975;DHT22;18500;43.618;1.474;2023-02-26T18:02:17;5.50;1.00
31975;DHT22;18500;43.618;1.474;2023-02-26T18:04:45;5.50;1.00
31975;DHT22;18500;43.618;1.474;2023-02-26T18:07:14;5.40;1.00
31975;DHT22;18500;43.618;1.474;2023-02-26T18:09:44;5.40;1.00
31975;DHT22;18500;43.618;1.474;2023-02-26T18:12:19;5.40;1.00
31975;DHT22;18500;43.618;1.474;2023-02-26T18:14:45;5.30;1.00
31975;DHT22;18500;43.618;1.474;2023-02-26T18:17:17;5.20;1.00
31975;DHT22;18500;43.618;1.474;2023-02-26T18:19:43;5.20;1.00
31975;DHT22;18500;43.618;1.474;2023-02-26T18:22:14;5.00;1.00
31975;DHT22;18500;43.618;1.474;2023-02-26T18:24:41;5.00;1.00
31975;DHT22;18500;43.618;1.474;2023-02-26T18:27:12;4.90;1.00
31975;DHT22;18500;43.618;1.474;2023-02-26T18:29:39;4.70;1.00
31975;DHT22;18500;43.618;1.474;2023-02-26T18:32:05;4.50;1.00
31975;DHT22;18500;43.618;1.474;2023-02-26T18:34:30;4.30;1.00
31975;DHT22;18500;43.618;1.474;2023-02-26T18:36:56;4.20;1.00
31975;DHT22;18500;43.618;1.474;2023-02-26T18:39:22;4.10;1.00
31975;DHT22;18500;43.618;1.474;2023-02-26T18:41:52;4.10;1.00
31975;DHT22;18500;43.618;1.474;2023-02-26T18:44:17;4.00;1.00
31975;DHT22;18500;43.618;1.474;2023-02-26T18:46:43;4.00;1.00
31975;DHT22;18500;43.618;1.474;2023-02-26T18:49:18;3.90;1.00
31975;DHT22;18500;43.618;1.474;2023-02-26T18:51:44;3.90;1.00
31975;DHT22;18500;43.618;1.474;2023-02-26T18:54:10;3.80;1.00
31975;DHT22;18500;43.618;1.474;2023-02-26T18:56:35;3.70;1.00
31975;DHT22;18500;43.618;1.474;2023-02-26T18:59:02;3.70;1.00
31975;DHT22;18500;43.618;1.474;2023-02-26T19:01:28;3.60;1.00
31975;DHT22;18500;43.618;1.474;2023-02-26T19:03:54;3.60;1.00
31975;DHT22;18500;43.618;1.474;2023-02-26T19:06:20;3.60;1.00
31975;DHT22;18500;43.618;1.474;2023-02-26T19:08:46;3.60;1.00
31975;DHT22;18500;43.618;1.474;2023-02-26T19:11:12;3.50;1.00
31975;DHT22;18500;43.618;1.474;2023-02-26T19:13:37;3.40;1.00
31975;DHT22;18500;43.618;1.474;2023-02-26T19:16:03;3.30;1.00
31975;DHT22;18500;43.618;1.474;2023-02-26T19:18:29;3.30;1.00
31975;DHT22;18500;43.618;1.474;2023-02-26T19:20:55;3.30;1.00
31975;DHT22;18500;43.618;1.474;2023-02-26T19:23:21;3.30;1.00
31975;DHT22;18500;43.618;1.474;2023-02-26T19:25:50;3.30;1.00
31975;DHT22;18500;43.618;1.474;2023-02-26T19:28:16;3.30;1.00
31975;DHT22;18500;43.618;1.474;2023-02-26T19:30:42;3.20;1.00
31975;DHT22;18500;43.618;1.474;2023-02-26T19:33:07;3.30;1.00
31975;DHT22;18500;43.618;1.474;2023-02-26T19:35:34;3.30;1.00
31975;DHT22;18500;43.618;1.474;2023-02-26T19:37:59;3.20;1.00
31975;DHT22;18500;43.618;1.474;2023-02-26T19:40:25;3.20;1.00
31975;DHT22;18500;43.618;1.474;2023-02-26T19:42:52;3.20;1.00
31975;DHT22;18500;43.618;1.474;2023-02-26T19:45:19;3.20;1.00
31975;DHT22;18500;43.618;1.474;2023-02-26T19:47:44;3.10;1.00
31975;DHT22;18500;43.618;1.474;2023-02-26T19:50:11;3.10;1.00
31975;DHT22;18500;43.618;1.474;2023-02-26T19:52:38;3.10;1.00
31975;DHT22;18500;43.618;1.474;2023-02-26T19:55:05;3.10;1.00
31975;DHT22;18500;43.618;1.474;2023-02-26T19:57:31;3.10;1.00
31975;DHT22;18500;43.618;1.474;2023-02-26T19:59:57;3.00;1.00
31975;DHT22;18500;43.618;1.474;2023-02-26T20:02:24;3.00;1.00
31975;DHT22;18500;43.618;1.474;2023-02-26T20:04:50;2.90;1.00
31975;DHT22;18500;43.618;1.474;2023-02-26T20:07:16;2.90;1.00
31975;DHT22;18500;43.618;1.474;2023-02-26T20:09:41;3.00;1.00
31975;DHT22;18500;43.618;1.474;2023-02-26T20:12:07;3.00;1.00
31975;DHT22;18500;43.618;1.474;2023-02-26T20:14:33;2.90;1.00
31975;DHT22;18500;43.618;1.474;2023-02-26T20:16:59;2.90;1.00
31975;DHT22;18500;43.618;1.474;2023-02-26T20:19:25;2.90;1.00
31975;DHT22;18500;43.618;1.474;2023-02-26T20:21:50;2.90;1.00
31975;DHT22;18500;43.618;1.474;2023-02-26T20:24:16;2.80;1.00
31975;DHT22;18500;43.618;1.474;2023-02-26T20:26:44;2.70;1.00
31975;DHT22;18500;43.618;1.474;2023-02-26T20:29:10;2.70;1.00
31975;DHT22;18500;43.618;1.474;2023-02-26T20:31:36;2.70;1.00
31975;DHT22;18500;43.618;1.474;2023-02-26T20:34:02;2.60;1.00
31975;DHT22;18500;43.618;1.474;2023-02-26T20:36:27;2.60;1.00
31975;DHT22;18500;43.618;1.474;2023-02-26T20:38:53;2.60;1.00
31975;DHT22;18500;43.618;1.474;2023-02-26T20:41:19;2.60;1.00
31975;DHT22;18500;43.618;1.474;2023-02-26T20:43:44;2.50;1.00
31975;DHT22;18500;43.618;1.474;2023-02-26T20:46:10;2.30;1.00
31975;DHT22;18500;43.618;1.474;2023-02-26T20:48:37;2.40;1.00
31975;DHT22;18500;43.618;1.474;2023-02-26T20:51:06;2.30;1.00
31975;DHT22;18500;43.618;1.474;2023-02-26T20:53:33;2.30;1.00
31975;DHT22;18500;43.618;1.474;2023-02-26T20:55:59;2.30;1.00
31975;DHT22;18500;43.618;1.474;2023-02-26T20:58:25;2.40;1.00
31975;DHT22;18500;43.618;1.474;2023-02-26T21:00:53;2.30;1.00
31975;DHT22;18500;43.618;1.474;2023-02-26T21:03:19;2.30;1.00
31975;DHT22;18500;43.618;1.474;2023-02-26T21:05:45;2.20;1.00
31975;DHT22;18500;43.618;1.474;2023-02-26T21:08:12;2.20;1.00
31975;DHT22;18500;43.618;1.474;2023-02-26T21:10:38;2.10;1.00
31975;DHT22;18500;43.618;1.474;2023-02-26T21:13:06;2.20;1.00
31975;DHT22;18500;43.618;1.474;2023-02-26T21:15:32;2.20;1.00
31975;DHT22;18500;43.618;1.474;2023-02-26T21:17:58;2.10;1.00
31975;DHT22;18500;43.618;1.474;2023-02-26T21:20:23;2.10;1.00
31975;DHT22;18500;43.618;1.474;2023-02-26T21:22:49;2.10;1.00
31975;DHT22;18500;43.618;1.474;2023-02-26T21:25:15;2.00;1.00
31975;DHT22;18500;43.618;1.474;2023-02-26T21:27:41;2.00;1.00
31975;DHT22;18500;43.618;1.474;2023-02-26T21:30:09;2.00;1.00
31975;DHT22;18500;43.618;1.474;2023-02-26T21:32:35;2.00;1.00
31975;DHT22;18500;43.618;1.474;2023-02-26T21:35:01;2.00;1.00
31975;DHT22;18500;43.618;1.474;2023-02-26T21:37:27;1.90;1.00
31975;DHT22;18500;43.618;1.474;2023-02-26T21:39:53;1.90;1.00
31975;DHT22;18500;43.618;1.474;2023-02-26T21:42:19;1.80;1.00
31975;DHT22;18500;43.618;1.474;2023-02-26T21:44:45;1.80;1.00
31975;DHT22;18500;43.618;1.474;2023-02-26T21:47:10;1.70;1.00
31975;DHT22;18500;43.618;1.474;2023-02-26T21:49:36;1.70;1.00
31975;DHT22;18500;43.618;1.474;2023-02-26T21:52:05;1.60;1.00
31975;DHT22;18500;43.618;1.474;2023-02-26T21:54:31;1.60;1.00
31975;DHT22;18500;43.618;1.474;2023-02-26T21:56:56;1.70;1.00
31975;DHT22;18500;43.618;1.474;2023-02-26T21:59:24;1.70;1.00
31975;DHT22;18500;43.618;1.474;2023-02-26T22:01:50;1.70;1.00
31975;DHT22;18500;43.618;1.474;2023-02-26T22:04:17;1.60;1.00
31975;DHT22;18500;43.618;1.474;2023-02-26T22:06:43;1.60;1.00
31975;DHT22;18500;43.618;1.474;2023-02-26T22:09:09;1.50;1.00
31975;DHT22;18500;43.618;1.474;2023-02-26T22:11:35;1.60;1.00
31975;DHT22;18500;43.618;1.474;2023-02-26T22:14:01;1.50;1.00
